Kezdőlap
METAR-TAF:

METAR-TAF

Repülőterek :

Block Island, Rhode Island, Amerikai Egyesült Államok

földrajzi szélesség: 41-10N, földrajzi hosszúság: 071-34W, magasság: 33 m

Jelenlegi meteorológiai megfigyelések

A jelentés 56 perccel ezelõtt készült, 10:56 UTC
Délnyugati szél 13 kt
Hőmérséklet 16°C
Páratartalom 100%
Légköri nyomás 1010 hPa
Látótávolság: 0.4 km
Borult 300 lábon
enyhe esõ, köd

METAR: KBID 061056Z AUTO 22013KT 1/4SM -RA FG OVC003 16/16 A2982 RMK AO2 SLP099 P0000 T01610156

Idő: 07:52 (11:52 UTC)


TAF: hiányzik

Meteorológiai megfigyelések és előrejelzések több, mint 4000 repülőtéren (METAR és TAF jelentéseket).

A térképen piros és sárga pontok jelzik az elérhető meteorológiai állomásokat.

Mozgassa az egeret a pont fölött, hogy megjelenjen az állomás neve.

Azután kattintson az időjárási megfigyelések és előrejelzések megtekintéséhez.

A térkép megváltoztatása: kattintson a fekete keresztel jelölt zöld gombra ráközelítéshez, a vonallal jelölt zöld gombra távolításhoz, vagy a zöld nyilakra a szomszédos térképek eléréséhez.


METAR-TAF: